createdAt,value
2019-05-11T00:00:46.656Z,30.50
2019-05-11T00:03:35.800Z,32.37
2019-05-11T00:06:23.760Z,30.70
2019-05-11T00:09:09.728Z,30.23
2019-05-11T00:11:58.832Z,28.97
2019-05-11T00:14:45.472Z,29.17
2019-05-11T00:17:31.659Z,29.50
2019-05-11T00:20:17.797Z,29.20
2019-05-11T00:23:05.457Z,29.47
2019-05-11T00:25:51.697Z,30.63
2019-05-11T00:28:38.010Z,30.13
2019-05-11T00:31:24.235Z,29.63
2019-05-11T00:34:12.121Z,30.60
2019-05-11T00:36:58.367Z,31.00
2019-05-11T00:39:48.406Z,29.93
2019-05-11T00:42:36.641Z,29.17
2019-05-11T00:45:22.974Z,30.30
2019-05-11T00:48:09.283Z,29.80
2019-05-11T00:50:59.914Z,29.53
2019-05-11T00:53:47.271Z,28.10
2019-05-11T00:56:33.222Z,30.63
2019-05-11T00:59:21.854Z,28.90
2019-05-11T01:02:07.647Z,29.00
2019-05-11T01:04:53.731Z,28.83
2019-05-11T01:07:39.817Z,28.43
2019-05-11T01:10:41.050Z,28.80
2019-05-11T01:13:16.038Z,27.63
2019-05-11T01:16:02.396Z,28.03
2019-05-11T01:19:00.227Z,28.43
2019-05-11T01:21:46.506Z,28.80
2019-05-11T01:24:32.907Z,29.43
2019-05-11T01:27:18.851Z,29.23
2019-05-11T01:30:05.571Z,29.37
2019-05-11T01:32:51.832Z,29.77
2019-05-11T01:35:37.907Z,29.63
2019-05-11T01:38:27.503Z,30.80
2019-05-11T01:41:13.681Z,28.60
2019-05-11T01:43:59.796Z,29.27
2019-05-11T01:46:45.936Z,28.57
2019-05-11T01:49:32.426Z,28.17
2019-05-11T01:52:22.141Z,28.73
2019-05-11T01:55:08.032Z,28.70
2019-05-11T01:57:56.587Z,26.80
2019-05-11T02:00:43.053Z,28.37
2019-05-11T02:03:29.148Z,26.17
2019-05-11T02:06:16.917Z,26.70
2019-05-11T02:09:04.626Z,26.47
2019-05-11T02:11:50.501Z,26.17
2019-05-11T02:14:38.788Z,25.63
2019-05-11T02:17:24.951Z,27.93
2019-05-11T02:20:14.101Z,25.13
2019-05-11T02:23:00.119Z,27.20
2019-05-11T02:25:46.311Z,23.93
2019-05-11T02:28:32.332Z,23.40
2019-05-11T02:31:18.630Z,24.80
2019-05-11T02:34:04.806Z,25.50
2019-05-11T02:36:50.816Z,25.00
2019-05-11T02:39:36.996Z,26.37
2019-05-11T02:42:23.253Z,23.93
2019-05-11T02:45:10.153Z,25.30
2019-05-11T02:47:57.832Z,25.07
2019-05-11T02:50:44.633Z,24.37
2019-05-11T02:53:31.505Z,24.00
2019-05-11T02:56:20.685Z,24.80
2019-05-11T02:59:06.718Z,24.83
2019-05-11T03:01:52.765Z,24.80
2019-05-11T03:04:38.867Z,23.10
2019-05-11T03:07:27.672Z,24.53
2019-05-11T03:10:13.922Z,24.77
2019-05-11T03:12:59.976Z,24.20
2019-05-11T03:15:46.048Z,25.53
2019-05-11T03:18:32.118Z,25.57
2019-05-11T03:21:18.248Z,25.33
2019-05-11T03:24:04.418Z,24.27
2019-05-11T03:26:50.487Z,23.73
2019-05-11T03:29:36.683Z,26.13
2019-05-11T03:32:22.854Z,23.87
2019-05-11T03:35:08.997Z,25.93
2019-05-11T03:37:54.954Z,24.07
2019-05-11T03:40:41.193Z,24.03
2019-05-11T03:43:27.231Z,24.73
2019-05-11T03:46:13.511Z,24.90
2019-05-11T03:48:59.444Z,25.27
2019-05-11T03:51:45.576Z,25.60
2019-05-11T03:54:31.911Z,24.37
2019-05-11T03:57:18.004Z,24.70
2019-05-11T04:00:04.784Z,25.00
2019-05-11T04:02:51.085Z,23.97
2019-05-11T04:05:37.299Z,23.07
2019-05-11T04:08:23.418Z,22.93
2019-05-11T04:11:09.737Z,23.83
2019-05-11T04:13:55.762Z,24.80
2019-05-11T04:16:42.268Z,23.73
2019-05-11T04:19:28.146Z,22.70
2019-05-11T04:22:14.268Z,21.80
2019-05-11T04:25:00.503Z,21.57
2019-05-11T04:27:46.589Z,20.47
2019-05-11T04:30:32.797Z,19.70
2019-05-11T04:33:19.133Z,19.77
2019-05-11T04:36:05.247Z,19.17
2019-05-11T04:38:51.318Z,19.33
2019-05-11T04:41:37.738Z,19.13
2019-05-11T04:44:23.832Z,18.53
2019-05-11T04:47:10.164Z,19.47
2019-05-11T04:49:56.331Z,17.43
2019-05-11T04:52:42.431Z,17.73
2019-05-11T04:55:28.777Z,18.17
2019-05-11T04:58:14.837Z,17.27
2019-05-11T05:01:01.254Z,17.67
2019-05-11T05:03:54.291Z,17.93
2019-05-11T05:06:38.811Z,18.67
2019-05-11T05:09:23.825Z,18.70
2019-05-11T05:12:14.087Z,17.60
2019-05-11T05:14:58.216Z,18.67
2019-05-11T05:17:44.296Z,19.37
2019-05-11T05:20:30.482Z,18.27
2019-05-11T05:23:16.696Z,17.23
2019-05-11T05:26:02.850Z,18.20
2019-05-11T05:28:49.027Z,18.67
2019-05-11T05:31:35.917Z,18.70
2019-05-11T05:34:21.756Z,18.03
2019-05-11T05:37:08.206Z,18.83
2019-05-11T05:39:54.161Z,18.37
2019-05-11T05:42:40.296Z,18.37
2019-05-11T05:45:26.566Z,17.43
2019-05-11T05:48:12.708Z,17.40
2019-05-11T05:50:58.807Z,17.17
2019-05-11T05:53:45.083Z,18.57
2019-05-11T05:56:31.080Z,16.60
2019-05-11T05:59:17.272Z,18.13
2019-05-11T06:02:03.460Z,16.93
2019-05-11T06:04:49.587Z,16.57
2019-05-11T06:07:38.751Z,16.77
2019-05-11T06:10:25.156Z,16.63
2019-05-11T06:13:14.283Z,17.50
2019-05-11T06:16:00.789Z,17.37
2019-05-11T06:18:47.037Z,16.63
2019-05-11T06:21:36.888Z,16.70
2019-05-11T06:24:23.176Z,16.10
2019-05-11T06:27:12.540Z,16.63
2019-05-11T06:29:58.732Z,16.40
2019-05-11T06:32:44.790Z,16.23
2019-05-11T06:35:30.943Z,15.93
2019-05-11T06:38:17.002Z,16.20
2019-05-11T06:41:09.106Z,15.60
2019-05-11T06:44:01.310Z,15.27
2019-05-11T06:46:39.702Z,16.03
2019-05-11T06:49:25.742Z,16.00
2019-05-11T06:52:12.023Z,13.37
2019-05-11T06:54:58.166Z,14.20
2019-05-11T06:57:44.179Z,15.43
2019-05-11T07:00:30.350Z,14.53
2019-05-11T07:03:16.609Z,14.83
2019-05-11T07:06:02.678Z,16.67
2019-05-11T07:08:50.144Z,16.30
2019-05-11T07:11:36.556Z,16.27
2019-05-11T07:14:22.616Z,15.50
2019-05-11T07:17:11.762Z,15.87
2019-05-11T07:19:58.132Z,15.77
2019-05-11T07:22:45.872Z,15.20
2019-05-11T07:25:32.101Z,16.60
2019-05-11T07:28:18.347Z,17.57
2019-05-11T07:31:06.518Z,16.40
2019-05-11T07:33:52.601Z,16.10
2019-05-11T07:36:38.961Z,17.60
2019-05-11T07:39:27.928Z,18.20
2019-05-11T07:42:14.196Z,17.80
2019-05-11T07:45:00.311Z,18.37
2019-05-11T07:47:48.548Z,18.43
2019-05-11T07:50:34.577Z,20.13
2019-05-11T07:53:20.851Z,21.47
2019-05-11T07:56:08.304Z,21.10
2019-05-11T07:58:54.501Z,21.93
2019-05-11T08:01:40.632Z,22.07
2019-05-11T08:04:28.814Z,21.47
2019-05-11T08:07:14.966Z,21.00
2019-05-11T08:10:01.207Z,20.87
2019-05-11T08:12:48.055Z,22.90
2019-05-11T08:15:34.414Z,20.47
2019-05-11T08:18:20.687Z,20.50
2019-05-11T08:21:08.861Z,21.27
2019-05-11T08:23:54.861Z,18.63
2019-05-11T08:26:41.135Z,18.57
2019-05-11T08:29:27.991Z,19.73
2019-05-11T08:32:14.315Z,18.93
2019-05-11T08:35:00.500Z,16.37
2019-05-11T08:37:47.879Z,16.60
2019-05-11T08:40:34.137Z,16.23
2019-05-11T08:43:20.418Z,17.57
2019-05-11T08:46:07.985Z,17.13
2019-05-11T08:48:54.071Z,17.47
2019-05-11T08:51:40.184Z,16.40
2019-05-11T08:54:28.676Z,18.33
2019-05-11T08:57:14.365Z,17.43
2019-05-11T09:00:00.699Z,17.07
2019-05-11T09:02:50.412Z,16.60
2019-05-11T09:05:34.873Z,16.90
2019-05-11T09:08:21.094Z,16.00
2019-05-11T09:11:08.394Z,15.80
2019-05-11T09:13:54.882Z,16.93
2019-05-11T09:16:41.061Z,15.93
2019-05-11T09:19:28.525Z,16.83
2019-05-11T09:22:14.896Z,17.80
2019-05-11T09:25:01.211Z,16.80
2019-05-11T09:27:48.224Z,17.40
2019-05-11T09:30:34.536Z,17.10
2019-05-11T09:33:20.933Z,16.93
2019-05-11T09:36:08.599Z,16.40
2019-05-11T09:38:54.968Z,16.30
2019-05-11T09:41:41.161Z,15.83
2019-05-11T09:44:28.826Z,14.40
2019-05-11T09:47:14.936Z,13.70
2019-05-11T09:50:01.677Z,14.67
2019-05-11T09:52:49.037Z,14.97
2019-05-11T09:55:35.437Z,14.00
2019-05-11T09:58:21.580Z,12.10
2019-05-11T10:01:08.864Z,10.30
2019-05-11T10:03:55.262Z,9.93
2019-05-11T10:06:41.276Z,9.30
2019-05-11T10:09:28.170Z,9.87
2019-05-11T10:12:14.557Z,10.00
2019-05-11T10:15:00.692Z,13.93
2019-05-11T10:17:48.319Z,12.90
2019-05-11T10:20:34.412Z,10.40
2019-05-11T10:23:20.542Z,9.07
2019-05-11T10:26:08.000Z,9.70
2019-05-11T10:28:54.332Z,7.60
2019-05-11T10:31:40.396Z,7.90
2019-05-11T10:34:28.473Z,7.60
2019-05-11T10:37:14.792Z,7.10
2019-05-11T10:40:01.067Z,7.40
2019-05-11T10:42:48.338Z,6.90
2019-05-11T10:45:35.053Z,6.77
2019-05-11T10:48:21.176Z,6.83
2019-05-11T10:51:08.219Z,6.87
2019-05-11T10:53:54.456Z,5.93
2019-05-11T10:56:40.576Z,5.40
2019-05-11T10:59:28.319Z,6.17
2019-05-11T11:02:14.722Z,6.70
2019-05-11T11:05:00.901Z,6.50
2019-05-11T11:07:48.459Z,6.40
2019-05-11T11:10:34.836Z,6.13
2019-05-11T11:13:20.936Z,6.90
2019-05-11T11:16:08.335Z,6.40
2019-05-11T11:18:55.702Z,6.87
2019-05-11T11:21:41.697Z,6.20
2019-05-11T11:24:28.704Z,6.40
2019-05-11T11:27:15.051Z,6.10
2019-05-11T11:30:01.235Z,7.73
2019-05-11T11:32:48.257Z,6.87
2019-05-11T11:35:34.659Z,7.30
2019-05-11T11:38:20.979Z,6.87
2019-05-11T11:41:07.750Z,6.00
2019-05-11T11:43:53.746Z,5.73
2019-05-11T11:46:51.330Z,5.60
2019-05-11T11:49:28.515Z,5.47
2019-05-11T11:52:14.916Z,6.33
2019-05-11T11:55:01.037Z,5.67
2019-05-11T11:57:48.647Z,6.53
2019-05-11T12:00:35.752Z,6.87
2019-05-11T12:03:21.832Z,5.63
2019-05-11T12:06:08.691Z,5.63
2019-05-11T12:08:55.227Z,6.27
2019-05-11T12:11:41.347Z,6.60
2019-05-11T12:14:28.176Z,5.50
2019-05-11T12:17:14.622Z,5.57
2019-05-11T12:20:00.775Z,6.57
2019-05-11T12:22:47.636Z,6.07
2019-05-11T12:25:33.793Z,6.83
2019-05-11T12:28:20.002Z,6.00
2019-05-11T12:31:08.540Z,5.80
2019-05-11T12:33:54.331Z,6.07
2019-05-11T12:36:40.566Z,5.47
2019-05-11T12:39:28.200Z,6.23
2019-05-11T12:42:14.500Z,5.93
2019-05-11T12:45:00.706Z,5.40
2019-05-11T12:47:48.017Z,6.33
2019-05-11T12:50:34.353Z,6.20
2019-05-11T12:53:20.628Z,5.03
2019-05-11T12:56:08.260Z,5.87
2019-05-11T12:58:54.445Z,6.60
2019-05-11T13:01:40.563Z,6.00
2019-05-11T13:04:28.269Z,5.33
2019-05-11T13:07:16.695Z,5.70
2019-05-11T13:10:02.591Z,5.47
2019-05-11T13:12:49.508Z,6.13
2019-05-11T13:15:35.821Z,4.93
2019-05-11T13:18:21.960Z,5.57
2019-05-11T13:21:08.575Z,5.27
2019-05-11T13:23:54.645Z,4.53
2019-05-11T13:26:40.856Z,4.97
2019-05-11T13:29:28.660Z,5.97
2019-05-11T13:32:15.396Z,5.13
2019-05-11T13:35:01.529Z,4.57
2019-05-11T13:37:48.135Z,5.00
2019-05-11T13:40:34.511Z,6.87
2019-05-11T13:43:20.630Z,4.93
2019-05-11T13:46:08.725Z,4.63
2019-05-11T13:48:54.871Z,4.67
2019-05-11T13:51:40.994Z,4.90
2019-05-11T13:54:27.179Z,5.47
2019-05-11T13:57:13.296Z,5.40
2019-05-11T13:59:59.450Z,5.53
2019-05-11T14:02:45.665Z,5.73
2019-05-11T14:05:31.806Z,4.70
2019-05-11T14:08:18.549Z,5.50
2019-05-11T14:11:05.190Z,4.60
2019-05-11T14:13:51.311Z,5.00
2019-05-11T14:16:38.036Z,5.37
2019-05-11T14:19:24.241Z,5.23
2019-05-11T14:22:10.298Z,6.43
2019-05-11T14:24:58.631Z,6.37
2019-05-11T14:27:44.685Z,5.70
2019-05-11T14:30:30.912Z,6.67
2019-05-11T14:33:18.117Z,6.60
2019-05-11T14:36:04.646Z,5.60
2019-05-11T14:38:50.830Z,5.60
2019-05-11T14:41:37.998Z,5.33
2019-05-11T14:44:24.870Z,6.20
2019-05-11T14:47:10.991Z,6.23
2019-05-11T14:49:57.849Z,6.73
2019-05-11T14:52:44.153Z,6.20
2019-05-11T14:55:31.968Z,6.07
2019-05-11T14:58:19.869Z,6.10
2019-05-11T15:01:08.647Z,5.50
2019-05-11T15:03:54.361Z,6.07
2019-05-11T15:06:40.535Z,5.70
2019-05-11T15:09:28.565Z,5.90
2019-05-11T15:12:15.031Z,6.33
2019-05-11T15:15:01.165Z,6.57
2019-05-11T15:17:49.162Z,7.10
2019-05-11T15:20:35.691Z,7.23
2019-05-11T15:23:21.920Z,6.80
2019-05-11T15:26:10.111Z,5.80
2019-05-11T15:28:58.384Z,5.77
2019-05-11T15:31:44.340Z,4.90
2019-05-11T15:34:30.538Z,6.30
2019-05-11T15:37:17.822Z,5.80
2019-05-11T15:40:18.785Z,5.10
2019-05-11T15:43:05.292Z,5.47
2019-05-11T15:45:51.341Z,5.37
2019-05-11T15:48:53.375Z,5.57
2019-05-11T15:51:25.715Z,5.93
2019-05-11T15:54:11.937Z,4.90
2019-05-11T15:56:59.987Z,5.83
2019-05-11T15:59:48.159Z,5.73
2019-05-11T16:02:34.383Z,5.03
2019-05-11T16:05:20.429Z,10.43
2019-05-11T16:08:08.376Z,4.90
2019-05-11T16:10:54.828Z,6.80
2019-05-11T16:13:41.005Z,6.50
2019-05-11T16:16:28.079Z,6.43
2019-05-11T16:19:15.415Z,5.53
2019-05-11T16:22:01.810Z,4.73
2019-05-11T16:24:48.522Z,4.03
2019-05-11T16:27:34.850Z,5.53
2019-05-11T16:30:21.799Z,6.43
2019-05-11T16:33:08.839Z,6.03
2019-05-11T16:35:58.023Z,4.47
2019-05-11T16:38:43.440Z,5.07
2019-05-11T16:41:29.500Z,4.03
2019-05-11T16:44:18.280Z,3.27
2019-05-11T16:47:03.796Z,6.33
2019-05-11T16:49:50.015Z,4.40
2019-05-11T16:52:38.474Z,4.83
2019-05-11T16:55:24.441Z,3.37
2019-05-11T16:58:10.321Z,4.23
2019-05-11T17:00:58.276Z,4.20
2019-05-11T17:03:44.495Z,3.70
2019-05-11T17:06:31.813Z,4.93
2019-05-11T17:09:19.705Z,3.53
2019-05-11T17:12:08.399Z,4.53
2019-05-11T17:14:58.421Z,3.77
2019-05-11T17:17:45.035Z,3.10
2019-05-11T17:20:31.233Z,3.77
2019-05-11T17:23:18.314Z,3.03
2019-05-11T17:26:04.761Z,2.87
2019-05-11T17:28:50.882Z,3.57
2019-05-11T17:31:38.020Z,2.60
2019-05-11T17:34:24.455Z,2.60
2019-05-11T17:37:10.569Z,2.30
2019-05-11T17:39:58.650Z,2.40
2019-05-11T17:42:44.980Z,2.80
2019-05-11T17:45:31.166Z,2.30
2019-05-11T17:48:17.941Z,2.73
2019-05-11T17:51:16.763Z,2.70
2019-05-11T17:53:52.184Z,2.43
2019-05-11T17:56:38.994Z,2.70
2019-05-11T17:59:25.055Z,2.23
2019-05-11T18:02:11.244Z,2.03
2019-05-11T18:04:58.449Z,2.33
2019-05-11T18:07:44.641Z,1.90
2019-05-11T18:10:30.895Z,2.37
2019-05-11T18:13:22.776Z,2.30
2019-05-11T18:16:09.458Z,1.87
2019-05-11T18:18:55.679Z,2.03
2019-05-11T18:21:44.489Z,2.37
2019-05-11T18:24:30.623Z,2.07
2019-05-11T18:27:18.522Z,2.13
2019-05-11T18:30:04.924Z,2.20
2019-05-11T18:32:50.999Z,2.23
2019-05-11T18:35:37.062Z,2.37
2019-05-11T18:38:23.194Z,2.03
2019-05-11T18:41:09.539Z,2.17
2019-05-11T18:43:55.685Z,2.23
2019-05-11T18:46:42.034Z,2.07
2019-05-11T18:49:28.625Z,2.63
2019-05-11T18:52:14.747Z,2.07
2019-05-11T18:55:00.810Z,2.27
2019-05-11T18:57:49.146Z,2.50
2019-05-11T19:00:35.103Z,2.40
2019-05-11T19:03:21.649Z,2.90
2019-05-11T19:06:08.839Z,2.07
2019-05-11T19:08:55.059Z,2.40
2019-05-11T19:11:42.829Z,2.27
2019-05-11T19:14:29.571Z,1.90
2019-05-11T19:17:18.009Z,2.43
2019-05-11T19:20:04.299Z,2.40
2019-05-11T19:22:50.533Z,2.13
2019-05-11T19:25:37.561Z,2.67
2019-05-11T19:28:23.574Z,2.90
2019-05-11T19:31:11.297Z,3.53
2019-05-11T19:33:58.145Z,2.37
2019-05-11T19:36:44.614Z,4.67
2019-05-11T19:39:30.783Z,3.00
2019-05-11T19:42:17.854Z,4.33
2019-05-11T19:45:04.364Z,3.37
2019-05-11T19:47:50.500Z,4.20
2019-05-11T19:50:40.331Z,3.27
2019-05-11T19:53:24.820Z,5.80
2019-05-11T19:56:11.085Z,3.07
2019-05-11T19:58:57.935Z,3.90
2019-05-11T20:01:44.464Z,3.03
2019-05-11T20:04:30.630Z,3.10
2019-05-11T20:07:18.329Z,2.90
2019-05-11T20:10:04.879Z,2.53
2019-05-11T20:12:50.966Z,2.70
2019-05-11T20:15:38.120Z,3.03
2019-05-11T20:18:24.760Z,2.80
2019-05-11T20:21:19.296Z,2.73
2019-05-11T20:23:59.105Z,2.37
2019-05-11T20:26:45.519Z,2.90
2019-05-11T20:29:31.920Z,2.47
2019-05-11T20:32:18.706Z,2.40
2019-05-11T20:35:04.761Z,1.43
2019-05-11T20:37:50.963Z,2.30
2019-05-11T20:40:37.815Z,2.37
2019-05-11T20:43:24.309Z,2.40
2019-05-11T20:46:10.358Z,2.20
2019-05-11T20:48:57.959Z,2.13
2019-05-11T20:51:44.129Z,2.10
2019-05-11T20:54:30.454Z,2.40
2019-05-11T20:57:17.966Z,2.20
2019-05-11T21:00:04.713Z,2.63
2019-05-11T21:02:50.735Z,2.30
2019-05-11T21:05:36.710Z,2.10
2019-05-11T21:08:22.876Z,2.10
2019-05-11T21:11:08.998Z,2.90
2019-05-11T21:13:55.196Z,2.27
2019-05-11T21:16:41.364Z,2.50
2019-05-11T21:19:28.460Z,2.40
2019-05-11T21:22:14.632Z,2.30
2019-05-11T21:25:00.682Z,2.40
2019-05-11T21:27:48.653Z,2.10
2019-05-11T21:30:35.161Z,2.77
2019-05-11T21:33:21.291Z,2.90
2019-05-11T21:36:08.812Z,2.20
2019-05-11T21:38:55.174Z,2.23
2019-05-11T21:41:41.343Z,2.57
2019-05-11T21:44:27.899Z,2.90
2019-05-11T21:47:14.080Z,2.37
2019-05-11T21:50:00.238Z,2.27
2019-05-11T21:52:48.439Z,2.80
2019-05-11T21:55:34.640Z,2.60
2019-05-11T21:58:20.750Z,2.50
2019-05-11T22:01:07.037Z,2.13
2019-05-11T22:03:53.930Z,2.30
2019-05-11T22:06:40.035Z,2.57
2019-05-11T22:09:27.795Z,2.57
2019-05-11T22:12:13.848Z,3.23
2019-05-11T22:15:00.166Z,2.43
2019-05-11T22:17:48.060Z,2.47
2019-05-11T22:20:34.457Z,3.00
2019-05-11T22:23:20.607Z,2.90
2019-05-11T22:26:07.749Z,3.10
2019-05-11T22:28:53.960Z,3.17
2019-05-11T22:31:42.106Z,3.30
2019-05-11T22:34:28.552Z,3.13
2019-05-11T22:37:14.505Z,3.23
2019-05-11T22:40:00.636Z,3.47
2019-05-11T22:42:47.142Z,3.10
2019-05-11T22:45:33.200Z,4.00
2019-05-11T22:48:19.340Z,3.90
2019-05-11T22:51:07.841Z,3.27
2019-05-11T22:53:53.734Z,3.30
2019-05-11T22:56:39.810Z,3.27
2019-05-11T22:59:28.109Z,3.70
2019-05-11T23:02:14.260Z,3.23
2019-05-11T23:05:00.475Z,3.73
2019-05-11T23:07:48.132Z,4.00
2019-05-11T23:10:34.375Z,2.90
2019-05-11T23:13:20.291Z,3.30
2019-05-11T23:16:08.535Z,3.57
2019-05-11T23:18:54.765Z,3.20
2019-05-11T23:21:40.812Z,3.33
2019-05-11T23:24:28.709Z,4.00
2019-05-11T23:27:15.130Z,3.23
2019-05-11T23:30:01.237Z,3.80
2019-05-11T23:32:48.571Z,3.53
2019-05-11T23:35:35.090Z,3.97
2019-05-11T23:38:21.160Z,3.10
2019-05-11T23:41:22.625Z,3.30
2019-05-11T23:43:58.367Z,3.30
2019-05-11T23:46:44.721Z,3.20
2019-05-11T23:49:30.920Z,3.67
2019-05-11T23:52:18.072Z,3.30
2019-05-11T23:55:04.400Z,3.57
2019-05-11T23:57:50.360Z,3.13
